Time;durP1;ratioP1;P1;durP2;ratioP2;P2;SDS_P1;SDS_P2;PMS_P1;PMS_P2;Temp;Humidity;BMP_temperature;BMP_pressure;BME280_temperature;BME280_humidity;BME280_pressure;Samples;Min_cycle;Max_cycle;Signal;HPM_P1;HPM_P2
2021/08/26 00:01:16;;;;;;;8.48;3.80;;;18.00;84.20;;;;;;5092664;28;20028;-82
2021/08/26 00:06:26;;;;;;;10.02;4.40;;;18.00;84.50;;;;;;5078906;28;20481;-82
2021/08/26 00:08:53;;;;;;;7.05;3.42;;;18.00;84.50;;;;;;5092741;28;20027;-81
2021/08/26 00:11:23;;;;;;;7.97;3.60;;;18.00;84.50;;;;;;5076107;28;20031;-80
2021/08/26 00:13:51;;;;;;;6.43;3.92;;;18.00;84.60;;;;;;5092670;28;20020;-82
2021/08/26 00:16:24;;;;;;;7.75;3.95;;;18.00;84.70;;;;;;5092466;28;20428;-81
2021/08/26 00:18:50;;;;;;;10.10;3.85;;;18.00;84.80;;;;;;5092282;28;20028;-82
2021/08/26 00:21:16;;;;;;;8.70;3.67;;;17.90;84.90;;;;;;5092375;28;20111;-82
2021/08/26 00:23:41;;;;;;;6.75;3.58;;;17.90;85.00;;;;;;5075366;28;20028;-81
2021/08/26 00:26:08;;;;;;;7.78;3.65;;;17.90;85.00;;;;;;5075428;28;20025;-84
2021/08/26 00:28:34;;;;;;;8.45;3.72;;;17.90;85.10;;;;;;5093540;28;20066;-83
2021/08/26 00:31:00;;;;;;;6.97;3.25;;;17.80;85.20;;;;;;5075390;28;20055;-83
2021/08/26 00:33:26;;;;;;;8.18;3.72;;;17.90;85.30;;;;;;5092180;28;20028;-83
2021/08/26 00:35:52;;;;;;;10.43;3.80;;;17.80;85.30;;;;;;5091987;28;20078;-82
2021/08/26 00:38:20;;;;;;;9.40;3.70;;;17.80;85.40;;;;;;5071605;28;20053;-83
2021/08/26 00:40:47;;;;;;;8.02;3.33;;;17.80;85.60;;;;;;5071709;28;20036;-82
2021/08/26 00:43:14;;;;;;;5.82;3.25;;;17.80;85.60;;;;;;5071693;28;20025;-83
2021/08/26 00:45:40;;;;;;;7.45;3.92;;;17.70;85.60;;;;;;5071639;28;20391;-84
2021/08/26 00:48:08;;;;;;;9.10;4.20;;;17.70;85.70;;;;;;5071440;28;20032;-83
2021/08/26 00:50:34;;;;;;;10.65;4.68;;;17.70;86.30;;;;;;5071636;28;20541;-82
2021/08/26 00:53:00;;;;;;;6.18;3.85;;;17.70;86.00;;;;;;5071656;28;20123;-82
2021/08/26 00:55:26;;;;;;;7.60;3.55;;;17.80;86.10;;;;;;5071709;28;20866;-83
2021/08/26 00:57:53;;;;;;;9.80;3.88;;;17.70;86.00;;;;;;5088135;28;20074;-83
2021/08/26 01:00:18;;;;;;;6.85;3.10;;;17.70;86.40;;;;;;5071448;28;20028;-82
2021/08/26 01:03:14;;;;;;;6.50;3.10;;;17.70;86.00;;;;;;5071286;28;20551;-82
2021/08/26 01:06:15;;;;;;;7.70;3.83;;;17.60;86.20;;;;;;5058271;28;20020;-82
2021/08/26 01:09:04;;;;;;;8.13;3.50;;;17.60;86.50;;;;;;5061027;28;20062;-81
2021/08/26 01:11:38;;;;;;;7.93;3.75;;;17.60;86.50;;;;;;5071261;28;20119;-83
2021/08/26 01:14:06;;;;;;;8.15;3.88;;;17.60;86.40;;;;;;5071290;28;20031;-83
2021/08/26 01:16:35;;;;;;;9.43;4.15;;;17.60;86.50;;;;;;5071138;28;20115;-82
2021/08/26 01:19:01;;;;;;;7.22;3.85;;;17.60;86.70;;;;;;5070837;28;20025;-83
2021/08/26 01:21:27;;;;;;;9.13;3.72;;;17.50;86.80;;;;;;5070876;28;20035;-83
2021/08/26 01:23:57;;;;;;;8.25;4.30;;;17.50;87.00;;;;;;5054117;28;20041;-83
2021/08/26 01:26:25;;;;;;;8.63;3.88;;;17.50;87.10;;;;;;5070685;28;20048;-83
2021/08/26 01:28:53;;;;;;;8.48;3.78;;;17.50;87.20;;;;;;5070533;28;20529;-82
2021/08/26 01:31:21;;;;;;;8.43;4.10;;;17.50;87.20;;;;;;5070599;28;20486;-82
2021/08/26 01:33:53;;;;;;;6.47;3.53;;;17.50;87.30;;;;;;5072113;28;20028;-83
2021/08/26 01:36:19;;;;;;;8.50;3.72;;;17.40;87.30;;;;;;5070444;28;20037;-81
2021/08/26 01:38:46;;;;;;;7.47;3.80;;;17.50;87.30;;;;;;5073929;28;20056;-82
2021/08/26 01:41:15;;;;;;;11.13;4.90;;;17.40;87.30;;;;;;5090765;28;20115;-82
2021/08/26 01:43:47;;;;;;;9.75;4.53;;;17.40;87.60;;;;;;5074051;28;20379;-82
2021/08/26 01:46:17;;;;;;;9.50;4.47;;;17.30;87.90;;;;;;5074244;28;20028;-81
2021/08/26 01:48:46;;;;;;;7.65;4.43;;;17.20;88.10;;;;;;5090124;28;20036;-83
2021/08/26 01:51:12;;;;;;;13.25;4.57;;;17.20;88.40;;;;;;5057204;28;20490;-82
2021/08/26 01:53:38;;;;;;;9.43;4.13;;;17.20;88.40;;;;;;5057067;28;20109;-82
2021/08/26 01:56:04;;;;;;;9.15;5.00;;;17.10;88.60;;;;;;5091803;28;20036;-83
2021/08/26 01:58:30;;;;;;;10.90;4.63;;;17.10;88.80;;;;;;5090605;28;20032;-83
2021/08/26 02:00:56;;;;;;;9.52;4.35;;;17.10;88.80;;;;;;5073648;28;20493;-83
2021/08/26 02:03:21;;;;;;;9.90;3.97;;;17.20;88.90;;;;;;5073549;28;20024;-83
2021/08/26 02:05:47;;;;;;;9.20;4.45;;;17.10;88.80;;;;;;5073454;28;20059;-81
2021/08/26 02:08:13;;;;;;;8.00;3.90;;;17.10;88.80;;;;;;5056751;28;20104;-82
2021/08/26 02:10:39;;;;;;;9.43;4.10;;;17.10;88.80;;;;;;5073310;28;20433;-83
2021/08/26 02:13:04;;;;;;;12.63;5.05;;;17.00;88.80;;;;;;5091671;28;20068;-83
2021/08/26 02:15:30;;;;;;;8.90;4.07;;;17.00;89.00;;;;;;5073665;28;20036;-84
2021/08/26 02:17:56;;;;;;;8.52;4.35;;;16.90;89.30;;;;;;5073193;28;20035;-82
2021/08/26 02:20:22;;;;;;;8.95;4.38;;;16.90;89.50;;;;;;5073453;28;20156;-83
2021/08/26 02:22:47;;;;;;;;;;;16.80;89.60;;;;;;5091895;28;20066;-82
2021/08/26 02:25:13;;;;;;;7.40;3.95;;;16.90;89.60;;;;;;5090042;28;19944;-81
2021/08/26 02:27:39;;;;;;;11.68;4.85;;;16.80;89.30;;;;;;5073494;28;20349;-81
2021/08/26 02:30:07;;;;;;;11.90;5.53;;;16.80;89.60;;;;;;5090144;28;20038;-81
2021/08/26 02:32:33;;;;;;;8.00;4.47;;;16.80;89.70;;;;;;5091423;28;20107;-83
2021/08/26 02:34:59;;;;;;;10.98;5.25;;;16.80;89.90;;;;;;5073499;28;20496;-82
2021/08/26 02:37:25;;;;;;;10.02;4.78;;;16.80;90.00;;;;;;5073205;28;20032;-82
2021/08/26 02:39:51;;;;;;;;;;;16.70;90.00;;;;;;5073436;28;20375;-82
2021/08/26 02:42:17;;;;;;;11.32;6.05;;;16.70;90.00;;;;;;5073103;28;19915;-83
2021/08/26 02:44:42;;;;;;;12.07;6.28;;;16.80;89.90;;;;;;5089913;28;20024;-82
2021/08/26 02:47:08;;;;;;;14.63;6.72;;;16.70;90.00;;;;;;5089831;28;20111;-82
2021/08/26 02:49:34;;;;;;;15.90;7.88;;;16.70;90.10;;;;;;5056241;28;20117;-82
2021/08/26 02:51:59;;;;;;;15.52;8.20;;;16.70;90.20;;;;;;5073089;28;20086;-81
2021/08/26 02:54:25;;;;;;;11.38;6.43;;;16.70;90.30;;;;;;5073048;28;20032;-81
2021/08/26 02:56:51;;;;;;;16.15;7.88;;;16.70;90.40;;;;;;5089880;28;20042;-82
2021/08/26 02:59:16;;;;;;;13.07;6.47;;;16.60;90.40;;;;;;5072887;28;20405;-83
2021/08/26 03:01:42;;;;;;;12.38;6.70;;;16.60;90.50;;;;;;5060073;28;20040;-81
2021/08/26 03:04:08;;;;;;;15.00;6.78;;;16.60;90.50;;;;;;5060380;28;20024;-81
2021/08/26 03:06:33;;;;;;;13.52;6.60;;;16.50;90.70;;;;;;5076961;28;20061;-81
2021/08/26 03:08:59;;;;;;;16.13;7.65;;;16.50;90.80;;;;;;5093705;28;20382;-82
2021/08/26 03:11:25;;;;;;;16.70;6.40;;;16.50;90.80;;;;;;5060175;28;20302;-81
2021/08/26 03:13:50;;;;;;;11.45;5.80;;;16.50;90.90;;;;;;5060080;28;20032;-81
2021/08/26 03:16:16;;;;;;;11.90;6.68;;;16.40;90.90;;;;;;5093562;28;20036;-81
2021/08/26 03:18:42;;;;;;;11.18;5.75;;;16.40;90.90;;;;;;5076639;28;20042;-82
2021/08/26 03:21:08;;;;;;;12.02;6.15;;;16.40;90.90;;;;;;5060226;28;20024;-82
2021/08/26 03:23:33;;;;;;;14.13;7.15;;;16.40;91.00;;;;;;5093691;28;20024;-82
2021/08/26 03:25:59;;;;;;;13.43;6.85;;;16.40;91.10;;;;;;5076427;28;20028;-82
2021/08/26 03:28:25;;;;;;;14.77;7.30;;;16.40;91.20;;;;;;5059861;28;20038;-81
2021/08/26 03:30:51;;;;;;;13.63;6.80;;;16.40;91.20;;;;;;5076441;28;20161;-82
2021/08/26 03:33:16;;;;;;;15.02;7.57;;;16.50;91.20;;;;;;5076466;28;20390;-83
2021/08/26 03:35:42;;;;;;;14.30;7.25;;;16.50;91.20;;;;;;5076408;28;20410;-83
2021/08/26 03:38:08;;;;;;;14.52;7.72;;;16.60;91.20;;;;;;5078619;28;20055;-83
2021/08/26 03:40:33;;;;;;;18.58;8.65;;;16.60;91.20;;;;;;5063014;28;20570;-82
2021/08/26 03:42:59;;;;;;;16.85;7.90;;;16.60;91.20;;;;;;5079665;28;20059;-83
2021/08/26 03:45:25;;;;;;;10.32;4.97;;;16.60;91.20;;;;;;5079774;28;20027;-81
2021/08/26 03:47:51;;;;;;;10.75;4.45;;;16.50;91.10;;;;;;5079420;28;20027;-82
2021/08/26 03:50:17;;;;;;;8.07;4.95;;;16.50;91.00;;;;;;5062870;28;20043;-82
2021/08/26 03:52:43;;;;;;;11.05;5.00;;;16.40;90.90;;;;;;5079645;28;20027;-83
2021/08/26 03:55:09;;;;;;;9.43;5.43;;;16.40;91.00;;;;;;5114668;28;20024;-82
2021/08/26 03:57:35;;;;;;;14.68;6.97;;;16.30;91.10;;;;;;5078849;28;20031;-81
2021/08/26 04:00:00;;;;;;;12.13;5.35;;;16.30;91.20;;;;;;5095780;28;20024;-83
2021/08/26 04:02:27;;;;;;;10.75;5.88;;;16.20;91.50;;;;;;5079074;28;20028;-81
2021/08/26 04:04:53;;;;;;;8.88;4.57;;;16.30;91.40;;;;;;5079283;28;20318;-81
2021/08/26 04:07:19;;;;;;;10.45;4.82;;;16.20;91.30;;;;;;5062341;28;20032;-82
2021/08/26 04:09:45;;;;;;;10.15;5.70;;;16.20;91.30;;;;;;5079056;28;20538;-81
2021/08/26 04:12:11;;;;;;;11.95;6.53;;;16.20;91.40;;;;;;5078632;28;20036;-82
2021/08/26 04:14:37;;;;;;;13.30;7.25;;;16.20;91.40;;;;;;5095759;28;20028;-82
2021/08/26 04:17:03;;;;;;;18.05;10.20;;;16.20;91.50;;;;;;5095748;28;20457;-81
2021/08/26 04:19:29;;;;;;;17.92;9.73;;;16.20;91.60;;;;;;5078920;28;20483;-82
2021/08/26 04:21:54;;;;;;;18.17;9.20;;;16.20;91.70;;;;;;5078952;28;20077;-82
2021/08/26 04:24:20;;;;;;;15.95;9.23;;;16.30;91.70;;;;;;5078826;28;20155;-81
2021/08/26 04:26:46;;;;;;;17.33;9.05;;;16.30;91.80;;;;;;5078798;28;20400;-81
2021/08/26 04:29:12;;;;;;;17.27;7.90;;;16.30;91.80;;;;;;5078886;28;20032;-83
2021/08/26 04:31:38;;;;;;;11.32;6.43;;;16.30;91.80;;;;;;5095632;28;20046;-82
2021/08/26 04:34:04;;;;;;;14.65;6.90;;;16.30;91.70;;;;;;5061864;28;20477;-80
2021/08/26 04:36:30;;;;;;;15.68;7.85;;;16.30;91.90;;;;;;5095479;28;20036;-82
2021/08/26 04:38:56;;;;;;;14.00;6.93;;;16.30;91.70;;;;;;5078442;28;20052;-82
2021/08/26 04:41:21;;;;;;;12.15;6.72;;;16.20;91.70;;;;;;5078449;28;20050;-81
2021/08/26 04:43:47;;;;;;;12.93;6.82;;;16.20;91.70;;;;;;5061747;28;20389;-83
2021/08/26 04:46:13;;;;;;;12.98;6.70;;;16.20;91.70;;;;;;5095230;28;20031;-83
2021/08/26 04:48:38;;;;;;;12.75;6.63;;;16.10;91.80;;;;;;5078354;28;20042;-81
2021/08/26 04:51:04;;;;;;;15.80;6.80;;;16.10;91.80;;;;;;5095264;28;20111;-81
2021/08/26 04:53:30;;;;;;;12.35;6.57;;;16.00;91.80;;;;;;5078331;28;20551;-80
2021/08/26 04:55:56;;;;;;;11.80;6.93;;;15.90;91.90;;;;;;5061550;28;20063;-82
2021/08/26 04:58:22;;;;;;;13.82;7.47;;;15.90;92.00;;;;;;5078137;28;20040;-82
2021/08/26 05:00:47;;;;;;;13.18;7.25;;;15.90;92.00;;;;;;5061617;28;20031;-81
2021/08/26 05:03:14;;;;;;;11.57;6.28;;;15.90;91.90;;;;;;5061454;28;20028;-82
2021/08/26 05:05:40;;;;;;;16.33;8.00;;;15.90;92.00;;;;;;5094914;28;20080;-81
2021/08/26 05:08:05;;;;;;;14.13;7.00;;;15.90;92.00;;;;;;5077926;28;20107;-83
2021/08/26 05:10:32;;;;;;;13.23;6.43;;;15.90;92.10;;;;;;5094582;28;20053;-82
2021/08/26 05:12:57;;;;;;;;;;;15.90;92.10;;;;;;5095169;28;20020;-81
2021/08/26 05:15:23;;;;;;;16.30;7.43;;;15.80;92.00;;;;;;5113050;28;20426;-79
2021/08/26 05:17:49;;;;;;;11.73;7.03;;;15.80;92.10;;;;;;5077807;28;20077;-83
2021/08/26 05:20:14;;;;;;;14.63;7.60;;;15.80;92.20;;;;;;5077459;28;20397;-84
2021/08/26 05:22:40;;;;;;;13.60;7.10;;;15.80;92.20;;;;;;5093609;28;20045;-82
2021/08/26 05:25:06;;;;;;;15.25;7.88;;;15.80;92.30;;;;;;5077828;28;20031;-81
2021/08/26 05:27:33;;;;;;;17.75;9.35;;;15.80;92.30;;;;;;5061425;28;20367;-81
2021/08/26 05:29:59;;;;;;;17.80;8.70;;;15.80;92.40;;;;;;5077514;28;20042;-81
2021/08/26 05:32:24;;;;;;;18.25;9.38;;;15.80;92.40;;;;;;5077449;28;20029;-83
2021/08/26 05:34:50;;;;;;;15.80;8.88;;;15.90;92.40;;;;;;5077419;28;20035;-81
2021/08/26 05:37:16;;;;;;;18.35;9.48;;;15.90;92.30;;;;;;5077335;28;20059;-82
2021/08/26 05:39:41;;;;;;;18.00;9.77;;;15.90;92.40;;;;;;5076976;28;20040;-81
2021/08/26 05:42:07;;;;;;;17.05;9.10;;;15.90;92.30;;;;;;5094466;28;20024;-81
2021/08/26 05:44:33;;;;;;;14.57;8.15;;;16.00;92.40;;;;;;5077611;28;20118;-82
2021/08/26 05:46:59;;;;;;;17.23;7.30;;;16.00;92.40;;;;;;5112384;28;20031;-82
2021/08/26 05:49:24;;;;;;;12.80;6.50;;;15.90;92.30;;;;;;5077400;28;20032;-82
2021/08/26 05:51:50;;;;;;;15.25;7.63;;;15.90;92.20;;;;;;5112333;28;20028;-82
2021/08/26 05:54:16;;;;;;;17.00;9.73;;;15.90;92.20;;;;;;5076842;28;20508;-84
2021/08/26 05:56:42;;;;;;;15.50;9.15;;;15.90;92.20;;;;;;5077083;28;20363;-81
2021/08/26 05:59:07;;;;;;;14.20;8.07;;;15.90;92.30;;;;;;5076539;28;20032;-84
2021/08/26 06:01:33;;;;;;;15.88;7.93;;;15.80;92.40;;;;;;5093901;28;20496;-81
2021/08/26 06:03:59;;;;;;;15.98;8.45;;;15.90;92.50;;;;;;5112155;28;20066;-81
2021/08/26 06:06:25;;;;;;;17.08;9.27;;;15.90;92.40;;;;;;5060221;28;20072;-81
2021/08/26 06:08:50;;;;;;;19.95;9.65;;;15.90;92.50;;;;;;5094040;28;20063;-82
2021/08/26 06:11:16;;;;;;;17.70;9.98;;;15.90;92.40;;;;;;5076975;28;20035;-83
2021/08/26 06:13:42;;;;;;;17.20;9.27;;;16.00;92.40;;;;;;5060334;28;20024;-82
2021/08/26 06:16:08;;;;;;;18.30;10.15;;;16.00;92.40;;;;;;5093519;28;20027;-80
2021/08/26 06:18:33;;;;;;;16.30;9.73;;;16.00;92.40;;;;;;5076680;28;20038;-80
2021/08/26 06:20:59;;;;;;;15.68;9.00;;;16.00;92.40;;;;;;5076544;28;20584;-82
2021/08/26 06:23:25;;;;;;;15.13;9.30;;;16.10;92.40;;;;;;5076751;28;20031;-81
2021/08/26 06:25:51;;;;;;;16.55;9.10;;;16.20;92.50;;;;;;5076734;28;20024;-84
2021/08/26 06:28:16;;;;;;;18.67;9.73;;;16.20;92.60;;;;;;5093675;28;20027;-81
2021/08/26 06:30:42;;;;;;;16.35;8.25;;;16.30;92.60;;;;;;5060041;28;20079;-82
2021/08/26 06:33:08;;;;;;;17.95;8.70;;;16.30;92.60;;;;;;5093846;28;20024;-82
2021/08/26 06:35:34;;;;;;;17.05;8.52;;;16.30;92.60;;;;;;5093420;28;20028;-81
2021/08/26 06:37:59;;;;;;;16.27;8.30;;;16.40;92.70;;;;;;5059756;28;20028;-82
2021/08/26 06:40:26;;;;;;;19.67;8.90;;;16.50;92.70;;;;;;5076365;28;20092;-83
2021/08/26 06:42:51;;;;;;;20.67;9.18;;;16.60;92.70;;;;;;5111623;28;20710;-83
2021/08/26 06:45:17;;;;;;;15.20;8.50;;;16.70;92.70;;;;;;5076685;28;20043;-81
2021/08/26 06:47:43;;;;;;;16.05;9.18;;;16.70;92.60;;;;;;5076058;28;20081;-81
2021/08/26 06:50:09;;;;;;;17.55;9.50;;;16.70;92.70;;;;;;5093436;28;20035;-83
2021/08/26 06:52:35;;;;;;;16.42;9.55;;;16.80;92.70;;;;;;5093022;28;20329;-83
2021/08/26 06:55:01;;;;;;;20.60;9.63;;;16.90;92.60;;;;;;5093257;28;20055;-83
2021/08/26 06:57:29;;;;;;;16.77;8.48;;;17.00;92.60;;;;;;5111098;28;20047;-79
2021/08/26 06:59:55;;;;;;;15.13;9.07;;;17.10;92.50;;;;;;5076219;28;20032;-81
2021/08/26 07:02:21;;;;;;;17.70;8.90;;;17.10;92.60;;;;;;5076169;28;20069;-81
2021/08/26 07:04:47;;;;;;;14.85;8.65;;;17.10;92.60;;;;;;5093011;28;20131;-80
2021/08/26 07:07:13;;;;;;;13.85;8.00;;;17.10;92.80;;;;;;5076116;28;20115;-80
2021/08/26 07:09:38;;;;;;;14.27;7.53;;;17.10;92.80;;;;;;5111389;28;20036;-81
2021/08/26 07:12:04;;;;;;;18.45;7.90;;;17.10;93.00;;;;;;5059335;28;20533;-81
2021/08/26 07:14:30;;;;;;;16.00;7.82;;;17.30;93.20;;;;;;5093033;28;20028;-83
2021/08/26 07:16:56;;;;;;;15.02;7.03;;;17.80;93.20;;;;;;5111125;28;20103;-81
2021/08/26 07:19:22;;;;;;;22.40;8.40;;;18.20;92.50;;;;;;5076320;28;20034;-82
2021/08/26 07:21:48;;;;;;;17.92;8.23;;;18.30;92.20;;;;;;5075941;28;20055;-81
2021/08/26 07:24:15;;;;;;;13.80;7.88;;;18.50;92.10;;;;;;5111085;28;20035;-80
2021/08/26 07:26:41;;;;;;;18.15;9.45;;;18.70;92.20;;;;;;5075789;28;20140;-81
2021/08/26 07:29:07;;;;;;;15.93;8.85;;;18.80;91.90;;;;;;5076087;28;20382;-82
2021/08/26 07:31:33;;;;;;;13.70;8.50;;;19.00;92.10;;;;;;5075661;28;20028;-82
2021/08/26 07:33:59;;;;;;;16.30;8.13;;;19.60;92.20;;;;;;5075813;28;20409;-83
2021/08/26 07:36:24;;;;;;;17.75;8.98;;;20.40;91.90;;;;;;5075686;28;20038;-82
2021/08/26 07:38:50;;;;;;;;;;;21.20;90.90;;;;;;5075965;28;20062;-82
2021/08/26 07:41:16;;;;;;;16.70;9.00;;;21.70;90.30;;;;;;5075675;28;20331;-83
2021/08/26 07:43:41;;;;;;;;;;;22.10;90.00;;;;;;5092980;28;20020;-83
2021/08/26 07:46:07;;;;;;;14.95;8.77;;;22.90;90.10;;;;;;5076289;28;20010;-84
2021/08/26 07:48:34;;;;;;;15.38;8.65;;;23.80;88.20;;;;;;5096252;28;20043;-78
2021/08/26 07:51:04;;;;;;;13.63;8.60;;;24.70;85.50;;;;;;5079742;28;20460;-79
2021/08/26 07:53:31;;;;;;;18.85;9.25;;;25.40;82.90;;;;;;5063334;28;20028;-81
2021/08/26 07:55:57;;;;;;;20.23;9.70;;;26.10;80.40;;;;;;5096363;28;20039;-81
2021/08/26 07:58:24;;;;;;;14.57;8.60;;;26.70;78.50;;;;;;5096224;28;20028;-82
2021/08/26 08:00:50;;;;;;;14.88;9.55;;;27.10;76.70;;;;;;5075980;28;20024;-79
2021/08/26 08:03:16;;;;;;;14.82;8.70;;;27.50;75.70;;;;;;5092874;28;20028;-84
2021/08/26 08:05:41;;;;;;;15.98;9.05;;;27.90;74.60;;;;;;5111177;28;20549;-82
2021/08/26 08:08:07;;;;;;;16.77;9.68;;;28.20;73.70;;;;;;5092500;28;20032;-82
2021/08/26 08:10:33;;;;;;;15.38;9.85;;;28.60;72.20;;;;;;5092620;28;20663;-81
2021/08/26 08:12:59;;;;;;;14.40;9.65;;;29.00;70.70;;;;;;5092679;28;20385;-79
2021/08/26 08:15:24;;;;;;;15.77;8.73;;;29.30;69.50;;;;;;5092111;28;20473;-82
2021/08/26 08:17:50;;;;;;;14.23;8.65;;;29.50;68.50;;;;;;5092639;28;20052;-83
2021/08/26 08:20:16;;;;;;;15.05;8.70;;;29.70;67.40;;;;;;5092249;28;20028;-83
2021/08/26 08:22:41;;;;;;;15.80;9.13;;;29.90;66.50;;;;;;5092320;28;20024;-81
2021/08/26 08:25:08;;;;;;;14.95;8.52;;;30.10;65.70;;;;;;5092093;28;20032;-81
2021/08/26 08:27:34;;;;;;;14.18;8.32;;;30.30;65.00;;;;;;5075326;28;20495;-75
2021/08/26 08:29:59;;;;;;;13.48;8.07;;;30.60;64.50;;;;;;5092108;28;20035;-78
2021/08/26 08:32:25;;;;;;;12.10;7.72;;;30.90;64.20;;;;;;5075204;28;20469;-81
2021/08/26 08:34:51;;;;;;;12.35;8.20;;;31.20;63.60;;;;;;5058759;28;20254;-78
2021/08/26 08:37:16;;;;;;;14.75;8.35;;;31.30;62.90;;;;;;5092288;28;20065;-80
2021/08/26 08:39:42;;;;;;;15.52;8.50;;;31.30;62.80;;;;;;5074903;28;20078;-80
2021/08/26 08:42:08;;;;;;;14.82;9.05;;;31.30;62.50;;;;;;5058321;28;20039;-81
2021/08/26 08:44:35;;;;;;;13.48;8.65;;;31.40;62.00;;;;;;5091660;28;20035;-80
2021/08/26 08:47:01;;;;;;;15.02;9.02;;;31.60;61.70;;;;;;5058199;28;20054;-81
2021/08/26 08:49:28;;;;;;;16.45;9.32;;;31.70;61.10;;;;;;5110178;28;20031;-82
2021/08/26 08:51:55;;;;;;;15.70;9.00;;;31.90;61.10;;;;;;5109971;28;20393;-82
2021/08/26 08:54:23;;;;;;;13.25;8.10;;;32.10;60.10;;;;;;5091453;28;20028;-79
2021/08/26 08:56:49;;;;;;;14.20;7.20;;;32.20;59.30;;;;;;5090973;28;20024;-81
2021/08/26 08:59:15;;;;;;;11.50;7.28;;;32.30;59.10;;;;;;5109520;28;20045;-79
2021/08/26 09:01:53;;;;;;;12.13;7.90;;;32.60;58.70;;;;;;5091449;28;20514;-84
2021/08/26 09:04:19;;;;;;;12.90;8.23;;;33.20;57.60;;;;;;5091579;28;20553;-84
2021/08/26 09:06:46;;;;;;;16.63;6.97;;;33.60;56.80;;;;;;5091126;28;20032;-80
2021/08/26 09:09:12;;;;;;;11.55;6.70;;;33.90;56.10;;;;;;5091611;28;20385;-82
2021/08/26 09:11:48;;;;;;;9.80;6.45;;;34.20;55.70;;;;;;5091989;28;20028;-84
2021/08/26 09:14:15;;;;;;;13.75;6.68;;;34.40;55.30;;;;;;5092834;28;20023;-80
2021/08/26 09:16:44;;;;;;;10.48;6.40;;;34.90;55.00;;;;;;5112013;28;20015;-80
2021/08/26 09:19:30;;;;;;;10.48;6.15;;;35.20;54.10;;;;;;5110987;28;20039;-80
2021/08/26 09:21:57;;;;;;;10.10;6.72;;;35.20;53.40;;;;;;5093666;28;20062;-79
2021/08/26 09:24:23;;;;;;;10.02;6.00;;;35.00;53.60;;;;;;5093233;28;20077;-81
2021/08/26 09:26:52;;;;;;;9.65;6.05;;;35.00;53.30;;;;;;5092242;28;20455;-80
2021/08/26 09:29:18;;;;;;;10.15;5.93;;;35.20;52.70;;;;;;5075956;28;20035;-80
2021/08/26 09:31:45;;;;;;;10.13;5.45;;;35.50;52.20;;;;;;5092660;28;20032;-80
2021/08/26 09:34:17;;;;;;;8.88;5.38;;;35.80;51.70;;;;;;5075192;28;20024;-81
2021/08/26 09:36:49;;;;;;;9.48;5.30;;;36.20;51.20;;;;;;5111205;28;20036;-80
2021/08/26 09:39:20;;;;;;;10.18;4.97;;;36.60;50.50;;;;;;5086063;28;20036;-80
2021/08/26 09:42:08;;;;;;;8.95;5.68;;;36.80;50.30;;;;;;5073731;28;20029;-81
2021/08/26 09:44:36;;;;;;;12.35;5.88;;;36.80;49.70;;;;;;5059429;28;20459;-79
2021/08/26 09:47:07;;;;;;;9.07;4.95;;;36.60;50.30;;;;;;5074511;28;20024;-80
2021/08/26 09:49:40;;;;;;;10.38;5.28;;;36.60;49.90;;;;;;5068041;28;20024;-83
2021/08/26 09:52:12;;;;;;;10.63;5.18;;;36.80;49.60;;;;;;5083428;28;20467;-80
2021/08/26 09:54:40;;;;;;;8.15;5.05;;;37.10;49.20;;;;;;5088442;28;20363;-80
2021/08/26 09:57:39;;;;;;;12.18;4.82;;;37.40;48.90;;;;;;5079510;28;20404;-79
2021/08/26 10:00:05;;;;;;;13.95;5.72;;;37.50;48.90;;;;;;5058922;28;20067;-78
2021/08/26 10:02:32;;;;;;;8.02;5.10;;;37.80;49.00;;;;;;5079570;28;20049;-78
2021/08/26 10:04:58;;;;;;;9.82;4.80;;;37.90;48.30;;;;;;5072881;28;20027;-78
2021/08/26 10:07:26;;;;;;;9.50;4.43;;;38.10;48.20;;;;;;5085663;28;20063;-79
2021/08/26 10:09:53;;;;;;;8.48;5.00;;;38.20;48.00;;;;;;5056054;28;20036;-79
2021/08/26 10:12:19;;;;;;;9.40;4.90;;;38.20;47.90;;;;;;5081938;28;20025;-78
2021/08/26 10:14:50;;;;;;;8.65;3.88;;;38.10;48.00;;;;;;5077333;28;20036;-80
2021/08/26 10:17:17;;;;;;;8.30;4.40;;;38.00;47.80;;;;;;5074301;28;20021;-78
2021/08/26 10:19:43;;;;;;;8.88;4.55;;;38.00;47.70;;;;;;5085935;28;20024;-79
2021/08/26 10:22:11;;;;;;;10.30;4.63;;;38.20;47.60;;;;;;5073567;28;20032;-80
2021/08/26 10:24:38;;;;;;;12.40;5.05;;;38.50;47.50;;;;;;5063565;28;20039;-80
2021/08/26 10:27:18;;;;;;;13.88;5.03;;;38.70;47.40;;;;;;5075051;28;20028;-80
2021/08/26 10:29:46;;;;;;;7.80;4.38;;;38.80;47.20;;;;;;5071044;28;20073;-79
2021/08/26 10:32:30;;;;;;;10.77;5.05;;;38.90;47.00;;;;;;5072737;28;20024;-80
2021/08/26 10:35:07;;;;;;;10.45;4.30;;;39.00;46.20;;;;;;5079435;28;20031;-79
2021/08/26 10:37:49;;;;;;;9.32;5.30;;;39.00;45.90;;;;;;5078744;28;20092;-80
2021/08/26 10:40:36;;;;;;;10.02;4.80;;;39.00;46.00;;;;;;5084734;28;20456;-78
2021/08/26 10:43:02;;;;;;;12.38;4.70;;;39.10;46.00;;;;;;5073612;28;20027;-82
2021/08/26 10:45:45;;;;;;;11.07;5.72;;;39.10;46.10;;;;;;5089751;28;20016;-79
2021/08/26 10:48:14;;;;;;;8.85;5.45;;;39.00;46.00;;;;;;5089112;28;20043;-80
2021/08/26 10:50:43;;;;;;;11.70;5.38;;;38.80;46.30;;;;;;5088433;28;20047;-80
2021/08/26 10:53:28;;;;;;;8.45;4.85;;;38.80;46.10;;;;;;5089734;28;20020;-80
2021/08/26 10:55:56;;;;;;;10.05;5.70;;;39.10;45.90;;;;;;5087918;28;20039;-79
2021/08/26 10:58:25;;;;;;;9.18;4.85;;;39.50;45.40;;;;;;5089132;28;20115;-79
2021/08/26 11:01:01;;;;;;;9.50;5.30;;;39.70;45.20;;;;;;5087936;28;20099;-80
2021/08/26 11:03:42;;;;;;;11.00;5.63;;;39.70;44.80;;;;;;5087068;28;20020;-78
2021/08/26 11:06:17;;;;;;;10.88;5.07;;;39.60;44.70;;;;;;5085807;28;20032;-79
2021/08/26 11:08:45;;;;;;;15.65;5.78;;;39.50;44.70;;;;;;5085132;28;20074;-80
2021/08/26 11:11:29;;;;;;;9.95;5.93;;;39.50;45.00;;;;;;5087336;28;20047;-81
2021/08/26 11:14:07;;;;;;;10.45;4.25;;;39.50;44.90;;;;;;5087809;28;20012;-76
2021/08/26 11:16:34;;;;;;;7.45;3.58;;;39.70;45.00;;;;;;5088245;28;20020;-79
2021/08/26 11:19:19;;;;;;;6.78;3.60;;;39.60;45.00;;;;;;5087179;28;20052;-76
2021/08/26 11:21:45;;;;;;;;;;;39.50;45.00;;;;;;5091172;28;20458;-77
2021/08/26 11:24:14;;;;;;;8.55;4.35;;;39.20;45.90;;;;;;5092562;28;19907;-78
2021/08/26 11:26:51;;;;;;;9.43;3.80;;;39.30;45.40;;;;;;5090576;28;20084;-78
2021/08/26 11:29:23;;;;;;;7.45;3.53;;;39.30;45.10;;;;;;5083116;28;20478;-76
2021/08/26 11:31:54;;;;;;;6.50;4.10;;;39.20;45.10;;;;;;5090743;28;20024;-79
2021/08/26 11:34:31;;;;;;;8.68;4.28;;;39.30;44.80;;;;;;5087748;28;20467;-80
2021/08/26 11:37:07;;;;;;;9.35;4.10;;;39.20;44.50;;;;;;5090676;28;20024;-79
2021/08/26 11:39:36;;;;;;;5.15;3.42;;;38.90;45.40;;;;;;5104611;28;20486;-76
2021/08/26 11:42:03;;;;;;;7.32;3.63;;;38.90;45.10;;;;;;5112184;28;20119;-78
2021/08/26 11:44:31;;;;;;;7.13;3.22;;;39.20;45.10;;;;;;5107163;28;20018;-76
2021/08/26 11:46:59;;;;;;;6.38;3.30;;;39.40;45.00;;;;;;5112034;28;20084;-80
2021/08/26 11:49:41;;;;;;;7.15;3.25;;;39.50;44.60;;;;;;5094305;28;20031;-79
2021/08/26 11:52:11;;;;;;;16.33;4.70;;;39.50;44.50;;;;;;5112237;28;20090;-81
2021/08/26 11:54:46;;;;;;;9.57;4.28;;;39.10;44.60;;;;;;5112939;28;20047;-79
2021/08/26 11:57:13;;;;;;;6.80;3.22;;;38.80;44.80;;;;;;5112415;28;20016;-80
2021/08/26 11:59:42;;;;;;;6.60;3.88;;;38.70;45.20;;;;;;5112989;28;20075;-79
2021/08/26 12:02:24;;;;;;;6.47;3.65;;;38.60;45.20;;;;;;5111804;28;20055;-79
2021/08/26 12:05:00;;;;;;;10.55;4.00;;;38.40;45.10;;;;;;5076678;28;20035;-80
2021/08/26 12:07:34;;;;;;;7.25;3.90;;;38.40;45.20;;;;;;5093358;28;20535;-82
2021/08/26 12:10:24;;;;;;;7.45;3.90;;;38.60;45.10;;;;;;5111533;28;20059;-79
2021/08/26 12:13:05;;;;;;;6.97;4.25;;;38.80;44.70;;;;;;5111751;28;20110;-79
2021/08/26 12:15:33;;;;;;;8.10;3.88;;;38.90;44.90;;;;;;5112489;28;20067;-80
2021/08/26 12:18:12;;;;;;;8.30;4.40;;;38.90;44.90;;;;;;5092752;28;20024;-77
2021/08/26 12:20:53;;;;;;;6.63;3.90;;;38.90;44.70;;;;;;5111543;28;20095;-78
2021/08/26 12:23:27;;;;;;;8.68;5.38;;;38.40;44.70;;;;;;5111569;28;20024;-80
2021/08/26 12:26:17;;;;;;;12.55;5.00;;;38.10;45.30;;;;;;5110864;28;20023;-79
2021/08/26 12:28:44;;;;;;;9.82;5.32;;;37.20;45.70;;;;;;5110821;28;20034;-77
2021/08/26 12:31:16;;;;;;;9.15;5.20;;;36.10;46.60;;;;;;5091661;28;20030;-79
2021/08/26 12:34:12;;;;;;;14.63;5.60;;;35.40;47.50;;;;;;5101841;28;20016;-79
2021/08/26 12:36:41;;;;;;;10.10;5.00;;;34.50;48.20;;;;;;5113716;28;20474;-77
2021/08/26 12:39:20;;;;;;;12.38;5.78;;;33.70;48.70;;;;;;5111786;28;20527;-80
2021/08/26 12:42:09;;;;;;;11.27;5.53;;;33.40;49.60;;;;;;5085270;28;20103;-80
2021/08/26 12:44:35;;;;;;;10.80;5.47;;;33.50;50.40;;;;;;5093154;28;20043;-79
2021/08/26 12:47:05;;;;;;;10.25;6.03;;;33.70;50.10;;;;;;5092821;28;20070;-79
2021/08/26 12:49:47;;;;;;;9.38;5.70;;;33.60;50.30;;;;;;5075674;28;20107;-80